TimeEDT,TemperatureF,Dew PointF,Humidity,Sea Level PressureIn,VisibilityMPH,Wind Direction,Wind SpeedMPH,Gust SpeedMPH,PrecipitationIn,Events,Conditions,WindDirDegrees,DateUTC
12:53 AM,54.0,34.0,47,30.19,10.0,Calm,Calm,-,N/A,,Clear,0,2013-05-26 04:53:00
1:53 AM,55.9,34.0,44,30.19,10.0,Variable,4.6,-,N/A,,Clear,0,2013-05-26 05:53:00
2:53 AM,51.1,36.0,56,30.19,10.0,Calm,Calm,-,N/A,,Clear,0,2013-05-26 06:53:00
3:53 AM,50.0,36.0,59,30.19,10.0,Calm,Calm,-,N/A,,Clear,0,2013-05-26 07:53:00
4:53 AM,48.0,37.0,66,30.19,10.0,SSW,3.5,-,N/A,,Clear,200,2013-05-26 08:53:00
5:53 AM,44.1,37.9,79,30.21,10.0,WSW,3.5,-,N/A,,Clear,250,2013-05-26 09:53:00
6:53 AM,48.0,41.0,77,30.22,10.0,Calm,Calm,-,N/A,,Clear,0,2013-05-26 10:53:00
7:53 AM,51.1,41.0,68,30.23,10.0,Calm,Calm,-,N/A,,Clear,0,2013-05-26 11:53:00
8:53 AM,57.0,37.0,47,30.24,10.0,Calm,Calm,-,N/A,,Clear,0,2013-05-26 12:53:00
9:53 AM,60.1,32.0,35,30.25,10.0,WSW,3.5,-,N/A,,Clear,250,2013-05-26 13:53:00
10:53 AM,61.0,32.0,34,30.24,10.0,SW,4.6,-,N/A,,Clear,220,2013-05-26 14:53:00
11:53 AM,64.0,33.1,31,30.23,10.0,Calm,Calm,-,N/A,,Clear,0,2013-05-26 15:53:00
12:53 PM,66.9,30.9,26,30.21,10.0,NW,8.1,-,N/A,,Clear,320,2013-05-26 16:53:00
1:53 PM,70.0,32.0,25,30.17,10.0,NNW,4.6,-,N/A,,Clear,330,2013-05-26 17:53:00
2:53 PM,71.1,32.0,24,30.16,10.0,Variable,3.5,-,N/A,,Clear,0,2013-05-26 18:53:00
3:53 PM,73.9,30.9,21,30.14,10.0,NNW,9.2,-,N/A,,Clear,340,2013-05-26 19:53:00
4:53 PM,73.9,28.0,18,30.13,10.0,Variable,5.8,-,N/A,,Clear,0,2013-05-26 20:53:00
5:53 PM,73.9,28.9,19,30.13,10.0,NNW,5.8,-,N/A,,Clear,340,2013-05-26 21:53:00
6:53 PM,73.0,32.0,22,30.14,10.0,North,4.6,-,N/A,,Clear,360,2013-05-26 22:53:00
7:53 PM,66.9,30.0,25,30.15,10.0,Calm,Calm,-,N/A,,Clear,0,2013-05-26 23:53:00
8:53 PM,64.9,30.0,27,30.17,10.0,Calm,Calm,-,N/A,,Clear,0,2013-05-27 00:53:00
9:53 PM,61.0,30.9,32,30.20,10.0,North,3.5,-,N/A,,Clear,350,2013-05-27 01:53:00
10:53 PM,55.9,34.0,44,30.22,10.0,NNW,3.5,-,N/A,,Clear,340,2013-05-27 02:53:00
11:53 PM,53.1,35.1,50,30.23,10.0,NNW,4.6,-,N/A,,Clear,340,2013-05-27 03:53:00